createdAt,value
2019-05-19T00:02:20.423Z,69.27
2019-05-19T00:06:22.462Z,67.50
2019-05-19T00:10:24.692Z,67.10
2019-05-19T00:14:26.726Z,66.61
2019-05-19T00:18:28.830Z,66.24
2019-05-19T00:22:30.976Z,67.04
2019-05-19T00:26:33.103Z,67.55
2019-05-19T00:30:35.235Z,68.90
2019-05-19T00:34:37.633Z,68.58
2019-05-19T00:38:40.714Z,68.79
2019-05-19T00:42:42.941Z,69.49
2019-05-19T00:46:45.364Z,69.57
2019-05-19T00:50:47.515Z,69.62
2019-05-19T00:54:50.042Z,69.29
2019-05-19T00:58:52.766Z,69.70
2019-05-19T01:02:54.966Z,69.72
2019-05-19T01:06:57.041Z,69.66
2019-05-19T01:11:02.696Z,70.23
2019-05-19T01:15:05.176Z,69.44
2019-05-19T01:19:07.426Z,68.47
2019-05-19T01:23:10.959Z,68.86
2019-05-19T01:27:13.096Z,68.64
2019-05-19T01:31:15.232Z,69.86
2019-05-19T01:35:17.722Z,68.68
2019-05-19T01:39:20.075Z,67.87
2019-05-19T01:43:22.452Z,67.26
2019-05-19T01:47:24.789Z,67.16
2019-05-19T01:51:26.993Z,66.38
2019-05-19T01:55:30.897Z,66.62
2019-05-19T01:59:33.275Z,66.07
2019-05-19T02:03:35.438Z,65.42
2019-05-19T02:07:37.578Z,65.13
2019-05-19T02:11:39.733Z,65.37
2019-05-19T02:15:41.805Z,65.35
2019-05-19T02:19:44.643Z,65.07
2019-05-19T02:23:46.891Z,64.69
2019-05-19T02:27:49.217Z,64.35
2019-05-19T02:31:51.401Z,64.22
2019-05-19T02:35:53.474Z,63.81
2019-05-19T02:39:55.626Z,63.85
2019-05-19T02:43:59.655Z,63.63
2019-05-19T02:48:03.786Z,63.68
2019-05-19T02:52:06.364Z,63.43
2019-05-19T02:56:10.973Z,63.56
2019-05-19T03:00:13.890Z,64.00
2019-05-19T03:04:16.409Z,63.94
2019-05-19T03:08:18.583Z,63.86
2019-05-19T03:12:20.540Z,64.01
2019-05-19T03:16:23.685Z,63.96
2019-05-19T03:20:25.778Z,63.59
2019-05-19T03:24:28.062Z,63.86
2019-05-19T03:28:30.129Z,63.10
2019-05-19T03:32:39.943Z,63.17
2019-05-19T03:36:42.414Z,63.24
2019-05-19T03:40:44.519Z,63.18
2019-05-19T03:44:47.581Z,63.01
2019-05-19T03:48:49.685Z,62.80
2019-05-19T03:52:51.752Z,62.87
2019-05-19T03:56:55.088Z,62.66
2019-05-19T04:00:58.202Z,61.86
2019-05-19T04:05:00.280Z,62.23
2019-05-19T04:09:05.829Z,61.29
2019-05-19T04:13:07.974Z,61.16
2019-05-19T04:17:10.018Z,61.15
2019-05-19T04:21:12.154Z,60.76
2019-05-19T04:25:14.600Z,60.71
2019-05-19T04:29:16.635Z,61.02
2019-05-19T04:33:18.761Z,60.19
2019-05-19T04:37:23.963Z,59.93
2019-05-19T04:41:26.126Z,60.17
2019-05-19T04:45:28.447Z,60.25
2019-05-19T04:49:30.465Z,59.50
2019-05-19T04:53:32.578Z,59.41
2019-05-19T04:57:36.503Z,58.24
2019-05-19T05:01:43.100Z,56.78
2019-05-19T05:05:48.436Z,57.56
2019-05-19T05:09:53.788Z,57.01
2019-05-19T05:13:55.917Z,57.03
2019-05-19T05:17:58.023Z,56.74
2019-05-19T05:22:00.279Z,56.88
2019-05-19T05:26:02.463Z,56.51
2019-05-19T05:30:04.771Z,55.40
2019-05-19T05:34:08.671Z,55.23
2019-05-19T05:38:10.802Z,54.87
2019-05-19T05:42:12.821Z,55.33
2019-05-19T05:46:14.876Z,55.59
2019-05-19T05:50:17.292Z,54.80
2019-05-19T05:54:19.287Z,55.02
2019-05-19T05:58:21.674Z,54.21
2019-05-19T06:02:23.901Z,53.81
2019-05-19T06:06:26.240Z,53.69
2019-05-19T06:10:29.490Z,53.74
2019-05-19T06:14:31.472Z,53.86
2019-05-19T06:18:33.432Z,53.53
2019-05-19T06:22:35.670Z,53.42
2019-05-19T06:26:37.796Z,52.18
2019-05-19T06:30:39.900Z,50.40
2019-05-19T06:34:41.962Z,49.71
2019-05-19T06:38:44.180Z,48.44
2019-05-19T06:42:46.298Z,45.93
2019-05-19T06:46:48.300Z,45.73
2019-05-19T06:50:50.466Z,43.05
2019-05-19T06:54:52.646Z,44.55
2019-05-19T06:58:54.814Z,42.37
2019-05-19T07:02:56.938Z,41.00
2019-05-19T07:06:59.179Z,41.05
2019-05-19T07:11:01.416Z,39.69
2019-05-19T07:15:03.460Z,41.11
2019-05-19T07:19:06.171Z,39.47
2019-05-19T07:23:08.190Z,39.49
2019-05-19T07:27:11.326Z,40.23
2019-05-19T07:31:15.183Z,39.60
2019-05-19T07:35:17.344Z,38.00
2019-05-19T07:39:19.326Z,39.07
2019-05-19T07:43:21.415Z,37.89
2019-05-19T07:47:23.501Z,37.93
2019-05-19T07:51:26.970Z,36.27
2019-05-19T07:55:28.998Z,38.01
2019-05-19T07:59:31.107Z,37.62
2019-05-19T08:03:34.811Z,37.89
2019-05-19T08:07:37.020Z,36.14
2019-05-19T08:11:39.256Z,36.11
2019-05-19T08:15:41.356Z,36.25
2019-05-19T08:19:43.499Z,36.25
2019-05-19T08:23:59.179Z,33.50
2019-05-19T08:28:07.262Z,34.74
2019-05-19T08:32:02.788Z,36.65
2019-05-19T08:36:05.068Z,35.25
2019-05-19T08:40:07.955Z,36.64
2019-05-19T08:44:10.203Z,35.50
2019-05-19T08:48:12.261Z,35.08
2019-05-19T08:52:15.279Z,33.35
2019-05-19T08:56:17.499Z,34.42
2019-05-19T09:00:20.225Z,33.68
2019-05-19T09:04:22.472Z,33.80
2019-05-19T09:08:24.672Z,33.08
2019-05-19T09:12:26.817Z,33.28
2019-05-19T09:16:28.971Z,32.96
2019-05-19T09:20:31.202Z,32.38
2019-05-19T09:24:33.321Z,33.18
2019-05-19T09:28:36.483Z,32.11
2019-05-19T09:32:38.711Z,31.56
2019-05-19T09:36:40.936Z,31.73
2019-05-19T09:40:43.060Z,32.22
2019-05-19T09:44:45.094Z,31.82
2019-05-19T09:48:48.852Z,31.52
2019-05-19T09:52:51.115Z,32.64
2019-05-19T09:56:53.256Z,30.93
2019-05-19T10:00:55.531Z,32.70
2019-05-19T10:04:57.879Z,31.43
2019-05-19T10:09:10.465Z,31.50
2019-05-19T10:13:12.465Z,31.14
2019-05-19T10:17:14.521Z,32.04
2019-05-19T10:21:16.819Z,32.32
2019-05-19T10:25:22.195Z,31.54
2019-05-19T10:29:22.917Z,32.25
2019-05-19T10:33:25.025Z,31.02
2019-05-19T10:37:27.085Z,31.39
2019-05-19T10:41:29.201Z,32.16
2019-05-19T10:45:31.431Z,31.83
2019-05-19T10:49:33.603Z,31.32
2019-05-19T10:53:35.626Z,31.00
2019-05-19T10:57:37.792Z,30.94
2019-05-19T11:01:39.863Z,29.77
2019-05-19T11:05:41.987Z,29.95
2019-05-19T11:09:44.106Z,29.55
2019-05-19T11:13:46.019Z,30.35
2019-05-19T11:17:48.157Z,30.24
2019-05-19T11:21:50.275Z,29.74
2019-05-19T11:25:52.442Z,29.79
2019-05-19T11:29:54.463Z,29.67
2019-05-19T11:33:56.621Z,27.06
2019-05-19T11:37:58.604Z,27.92
2019-05-19T11:42:00.684Z,28.25
2019-05-19T11:46:03.062Z,28.12
2019-05-19T11:50:05.196Z,28.57
2019-05-19T11:54:07.315Z,28.09
2019-05-19T11:58:09.586Z,28.54
2019-05-19T12:02:11.880Z,29.55
2019-05-19T12:06:14.924Z,28.68
2019-05-19T12:10:17.245Z,29.72
2019-05-19T12:14:19.687Z,29.30
2019-05-19T12:18:21.831Z,29.18
2019-05-19T12:22:24.889Z,28.17
2019-05-19T12:26:27.121Z,28.35
2019-05-19T12:30:29.248Z,27.79
2019-05-19T12:34:31.852Z,27.95
2019-05-19T12:38:33.761Z,27.70
2019-05-19T12:42:35.901Z,28.58
2019-05-19T12:46:38.112Z,28.33
2019-05-19T12:50:41.646Z,27.81
2019-05-19T12:54:43.712Z,28.76
2019-05-19T12:58:46.930Z,27.78
2019-05-19T13:02:48.809Z,27.58
2019-05-19T13:06:50.729Z,28.40
2019-05-19T13:10:52.965Z,28.19
2019-05-19T13:14:55.236Z,29.23
2019-05-19T13:18:59.044Z,27.59
2019-05-19T13:23:01.631Z,28.05
2019-05-19T13:27:04.309Z,28.74
2019-05-19T13:31:06.925Z,29.07
2019-05-19T13:35:09.041Z,28.69
2019-05-19T13:39:11.605Z,28.81
2019-05-19T13:43:13.745Z,29.32
2019-05-19T13:47:16.556Z,28.36
2019-05-19T13:51:18.733Z,28.58
2019-05-19T13:55:21.078Z,29.14
2019-05-19T13:59:23.184Z,30.96
2019-05-19T14:03:25.668Z,29.12
2019-05-19T14:07:28.073Z,28.92
2019-05-19T14:11:30.497Z,28.77
2019-05-19T14:15:32.456Z,28.58
2019-05-19T14:19:35.778Z,27.78
2019-05-19T14:23:39.650Z,28.78
2019-05-19T14:27:44.691Z,28.86
2019-05-19T14:31:47.060Z,29.01
2019-05-19T14:35:49.197Z,28.02
2019-05-19T14:39:55.363Z,27.35
2019-05-19T14:43:57.418Z,25.94
2019-05-19T14:48:01.125Z,24.81
2019-05-19T14:52:03.013Z,24.15
2019-05-19T14:56:04.779Z,24.62
2019-05-19T15:00:08.378Z,24.29
2019-05-19T15:04:10.226Z,23.99
2019-05-19T15:08:12.062Z,24.47
2019-05-19T15:12:13.837Z,24.74
2019-05-19T15:16:15.856Z,24.32
2019-05-19T15:20:18.051Z,25.40
2019-05-19T15:24:19.867Z,24.09
2019-05-19T15:28:22.210Z,24.06
2019-05-19T15:32:24.026Z,24.09
2019-05-19T15:36:25.807Z,25.21
2019-05-19T15:40:27.648Z,25.04
2019-05-19T15:44:29.419Z,24.27
2019-05-19T15:48:31.207Z,25.32
2019-05-19T15:52:32.994Z,27.29
2019-05-19T15:56:34.817Z,29.41
2019-05-19T16:00:36.576Z,30.50
2019-05-19T16:04:38.693Z,31.80
2019-05-19T16:08:40.480Z,31.90
2019-05-19T16:12:42.282Z,31.28
2019-05-19T16:16:44.365Z,32.58
2019-05-19T16:20:46.795Z,32.58
2019-05-19T16:24:48.640Z,32.90
2019-05-19T16:28:50.845Z,32.64
2019-05-19T16:32:52.974Z,33.71
2019-05-19T16:36:55.085Z,33.58
2019-05-19T16:40:57.235Z,33.50
2019-05-19T16:44:59.237Z,33.43
2019-05-19T16:49:01.290Z,33.60
2019-05-19T16:53:03.539Z,33.59
2019-05-19T16:57:07.183Z,33.28
2019-05-19T17:01:09.395Z,33.05
2019-05-19T17:05:11.601Z,32.79
2019-05-19T17:09:13.440Z,33.51
2019-05-19T17:13:15.693Z,33.46
2019-05-19T17:17:18.597Z,33.83
2019-05-19T17:21:20.928Z,33.72
2019-05-19T17:25:24.100Z,33.99
2019-05-19T17:29:26.451Z,34.45
2019-05-19T17:33:28.251Z,35.15
2019-05-19T17:37:30.322Z,34.98
2019-05-19T17:41:32.110Z,35.40
2019-05-19T17:45:33.880Z,35.17
2019-05-19T17:49:35.764Z,35.32
2019-05-19T17:53:37.857Z,35.76
2019-05-19T17:57:40.282Z,36.19
2019-05-19T18:01:42.183Z,37.17
2019-05-19T18:05:44.437Z,36.89
2019-05-19T18:09:46.240Z,36.80
2019-05-19T18:13:48.021Z,37.02
2019-05-19T18:17:49.783Z,37.29
2019-05-19T18:21:51.648Z,37.58
2019-05-19T18:25:53.414Z,38.34
2019-05-19T18:29:55.242Z,38.13
2019-05-19T18:33:57.042Z,38.16
2019-05-19T18:37:58.906Z,38.34
2019-05-19T18:42:00.842Z,38.87
2019-05-19T18:46:02.644Z,38.91
2019-05-19T18:50:04.562Z,39.48
2019-05-19T18:54:06.481Z,39.77
2019-05-19T18:58:08.218Z,40.15
2019-05-19T19:02:10.949Z,40.63
2019-05-19T19:06:12.880Z,41.01
2019-05-19T19:10:14.805Z,41.07
2019-05-19T19:14:17.064Z,41.71
2019-05-19T19:18:19.314Z,42.11
2019-05-19T19:22:21.060Z,42.21
2019-05-19T19:26:23.088Z,42.71
2019-05-19T19:30:26.662Z,43.17
2019-05-19T19:34:28.743Z,43.23
2019-05-19T19:38:30.483Z,43.63
2019-05-19T19:42:34.006Z,44.00
2019-05-19T19:46:35.756Z,44.07
2019-05-19T19:50:37.560Z,43.79
2019-05-19T19:54:39.319Z,44.09
2019-05-19T19:58:41.101Z,44.70
2019-05-19T20:02:42.838Z,44.76
2019-05-19T20:06:44.791Z,44.97
2019-05-19T20:10:46.599Z,45.40
2019-05-19T20:14:48.736Z,45.42
2019-05-19T20:18:50.654Z,45.18
2019-05-19T20:22:52.449Z,45.60
2019-05-19T20:26:54.494Z,45.75
2019-05-19T20:30:56.584Z,45.69
2019-05-19T20:34:58.450Z,45.76
2019-05-19T20:39:00.325Z,45.93
2019-05-19T20:43:04.342Z,46.34
2019-05-19T20:47:06.509Z,46.37
2019-05-19T20:51:08.485Z,46.51
2019-05-19T20:55:10.508Z,47.15
2019-05-19T20:59:12.251Z,46.96
2019-05-19T21:03:14.062Z,47.16
2019-05-19T21:07:15.818Z,47.56
2019-05-19T21:11:17.638Z,47.44
2019-05-19T21:15:19.403Z,47.58
2019-05-19T21:19:21.211Z,47.60
2019-05-19T21:23:23.009Z,47.92
2019-05-19T21:27:24.879Z,47.59
2019-05-19T21:31:26.615Z,48.26
2019-05-19T21:35:28.476Z,48.40
2019-05-19T21:39:30.312Z,49.02
2019-05-19T21:43:32.078Z,50.02
2019-05-19T21:47:33.854Z,50.38
2019-05-19T21:51:35.651Z,51.62
2019-05-19T21:55:37.387Z,51.85
2019-05-19T21:59:39.564Z,52.22
2019-05-19T22:03:41.391Z,53.58
2019-05-19T22:08:02.072Z,52.26
2019-05-19T22:12:04.278Z,52.63
2019-05-19T22:16:13.120Z,53.76
2019-05-19T22:20:10.822Z,54.06
2019-05-19T22:24:14.216Z,54.50
2019-05-19T22:28:15.966Z,54.42
2019-05-19T22:32:18.089Z,54.13
2019-05-19T22:36:20.305Z,53.90
2019-05-19T22:40:22.083Z,53.75
2019-05-19T22:44:23.844Z,53.41
2019-05-19T22:48:25.782Z,54.13
2019-05-19T22:52:27.537Z,54.07
2019-05-19T22:56:29.351Z,53.86
2019-05-19T23:00:31.259Z,54.39
2019-05-19T23:04:33.259Z,54.57
2019-05-19T23:08:35.120Z,54.75
2019-05-19T23:12:36.895Z,54.97
2019-05-19T23:16:38.647Z,56.21
2019-05-19T23:20:40.472Z,56.12
2019-05-19T23:24:42.207Z,55.94
2019-05-19T23:28:43.986Z,56.34
2019-05-19T23:32:45.719Z,56.03
2019-05-19T23:36:47.967Z,55.80
2019-05-19T23:40:49.726Z,55.77
2019-05-19T23:44:51.588Z,55.73
2019-05-19T23:48:53.312Z,56.50
2019-05-19T23:52:55.126Z,57.23
2019-05-19T23:56:56.870Z,57.17
